createdAt,value
2017-06-03T00:00:58.581Z,20.3
2017-06-03T00:02:01.210Z,20.4
2017-06-03T00:03:04.440Z,20.4
2017-06-03T00:04:06.969Z,20.4
2017-06-03T00:05:11.022Z,20.1
2017-06-03T00:06:13.949Z,20
2017-06-03T00:07:16.556Z,20
2017-06-03T00:08:19.181Z,19.9
2017-06-03T00:09:21.756Z,19.8
2017-06-03T00:10:24.557Z,19.7
2017-06-03T00:11:28.065Z,19.6
2017-06-03T00:12:30.654Z,19.6
2017-06-03T00:13:33.221Z,19.8
2017-06-03T00:14:35.817Z,19.7
2017-06-03T00:15:38.367Z,19.5
2017-06-03T00:16:40.995Z,19.5
2017-06-03T00:17:44.797Z,19.4
2017-06-03T00:18:47.577Z,19.4
2017-06-03T00:19:50.640Z,19.5
2017-06-03T00:20:53.213Z,19.5
2017-06-03T00:22:06.638Z,19.5
2017-06-03T00:23:10.582Z,19.8
2017-06-03T00:24:13.073Z,19.8
2017-06-03T00:25:15.628Z,19.9
2017-06-03T00:26:18.147Z,19.9
2017-06-03T00:27:20.701Z,19.9
2017-06-03T00:28:23.240Z,19.9
2017-06-03T00:29:25.787Z,19.8
2017-06-03T00:30:28.400Z,19.7
2017-06-03T00:31:30.917Z,19.6
2017-06-03T00:32:33.437Z,19.6
2017-06-03T00:33:35.919Z,19.7
2017-06-03T00:34:39.041Z,19.7
2017-06-03T00:35:41.591Z,19.8
2017-06-03T00:36:44.200Z,19.8
2017-06-03T00:37:46.665Z,19.9
2017-06-03T00:38:49.161Z,19.9
2017-06-03T00:39:51.660Z,19.8
2017-06-03T00:40:54.195Z,19.7
2017-06-03T00:41:56.731Z,19.7
2017-06-03T00:42:59.251Z,19.7
2017-06-03T00:44:01.813Z,19.5
2017-06-03T00:45:05.584Z,19.5
2017-06-03T00:46:08.806Z,19.6
2017-06-03T00:47:11.331Z,19.5
2017-06-03T00:48:13.997Z,19.4
2017-06-03T00:49:16.607Z,19.5
2017-06-03T00:50:19.978Z,19.3
2017-06-03T00:51:23.537Z,19.5
2017-06-03T00:52:26.238Z,19.5
2017-06-03T00:53:28.932Z,19.5
2017-06-03T00:54:32.125Z,19.5
2017-06-03T00:55:35.350Z,19.5
2017-06-03T00:56:38.592Z,19.5
2017-06-03T00:57:41.872Z,19.5
2017-06-03T00:58:44.380Z,19.6
2017-06-03T00:59:46.849Z,19.5
2017-06-03T01:00:49.504Z,19.6
2017-06-03T01:01:52.009Z,19.6
2017-06-03T01:02:54.487Z,19.7
2017-06-03T01:03:57.136Z,19.8
2017-06-03T01:04:59.715Z,19.9
2017-06-03T01:06:02.458Z,19.9
2017-06-03T01:07:05.148Z,19.8
2017-06-03T01:08:07.762Z,19.8
2017-06-03T01:09:10.309Z,19.9
2017-06-03T01:10:13.854Z,19.9
2017-06-03T01:11:18.295Z,19.9
2017-06-03T01:12:20.841Z,19.6
2017-06-03T01:13:23.542Z,19.7
2017-06-03T01:14:26.115Z,19.8
2017-06-03T01:15:28.763Z,19.9
2017-06-03T01:16:31.281Z,19.9
2017-06-03T01:17:35.257Z,20
2017-06-03T01:18:38.062Z,20
2017-06-03T01:19:40.639Z,19.9
2017-06-03T01:20:43.148Z,19.9
2017-06-03T01:21:46.576Z,19.7
2017-06-03T01:22:49.082Z,19.7
2017-06-03T01:23:51.590Z,19.5
2017-06-03T01:24:54.056Z,19.7
2017-06-03T01:25:57.430Z,19.8
2017-06-03T01:26:59.929Z,19.6
2017-06-03T01:28:02.490Z,19.7
2017-06-03T01:29:05.267Z,19.7
2017-06-03T01:30:10.411Z,19.8
2017-06-03T01:31:13.937Z,19.9
2017-06-03T01:32:16.797Z,19.9
2017-06-03T01:33:19.285Z,19.9
2017-06-03T01:35:33.850Z,19.9
2017-06-03T01:36:36.343Z,19.9
2017-06-03T01:37:38.857Z,19.9
2017-06-03T01:38:41.306Z,19.9
2017-06-03T01:39:43.806Z,19.9
2017-06-03T01:40:46.292Z,19.8
2017-06-03T01:41:48.859Z,19.9
2017-06-03T01:42:51.454Z,19.8
2017-06-03T01:43:53.975Z,19.4
2017-06-03T01:44:56.440Z,19.4
2017-06-03T01:45:58.956Z,19.5
2017-06-03T01:47:01.490Z,19.5
2017-06-03T01:48:04.125Z,19.7
2017-06-03T01:49:06.691Z,19.7
2017-06-03T01:50:09.933Z,19.7
2017-06-03T01:51:12.573Z,19.6
2017-06-03T01:52:15.103Z,19.4
2017-06-03T01:53:17.689Z,19.3
2017-06-03T01:54:20.250Z,19.4
2017-06-03T01:55:22.799Z,19.3
2017-06-03T01:56:25.432Z,19.4
2017-06-03T01:57:27.977Z,19.3
2017-06-03T01:58:30.545Z,19.2
2017-06-03T01:59:33.131Z,19.2
2017-06-03T02:00:35.670Z,19.3
2017-06-03T02:01:38.195Z,19.3
2017-06-03T02:02:40.672Z,19.2
2017-06-03T02:03:43.146Z,19.2
2017-06-03T02:04:45.604Z,19.1
2017-06-03T02:05:48.056Z,19.3
2017-06-03T02:06:50.604Z,19.3
2017-06-03T02:07:53.174Z,19.3
2017-06-03T02:08:55.627Z,19.4
2017-06-03T02:09:58.097Z,19.4
2017-06-03T02:11:00.630Z,19.3
2017-06-03T02:12:04.595Z,19.3
2017-06-03T02:13:07.801Z,19.3
2017-06-03T02:14:10.551Z,19.3
2017-06-03T02:15:13.138Z,19.3
2017-06-03T02:16:15.800Z,19.4
2017-06-03T02:17:18.333Z,19.3
2017-06-03T02:18:20.832Z,19.2
2017-06-03T02:19:23.417Z,19.3
2017-06-03T02:20:26.024Z,19.3
2017-06-03T02:21:29.459Z,19.1
2017-06-03T02:22:32.043Z,19.2
2017-06-03T02:23:34.580Z,19.2
2017-06-03T02:24:37.087Z,19.1
2017-06-03T02:25:39.578Z,19.1
2017-06-03T02:26:42.147Z,19.1
2017-06-03T02:27:44.756Z,19.1
2017-06-03T02:28:47.276Z,19.1
2017-06-03T02:29:49.812Z,19
2017-06-03T02:30:52.314Z,19
2017-06-03T02:31:54.808Z,19.1
2017-06-03T02:32:57.302Z,19.1
2017-06-03T02:33:59.891Z,19
2017-06-03T02:35:04.829Z,19
2017-06-03T02:36:08.351Z,19
2017-06-03T02:37:10.999Z,18.9
2017-06-03T02:38:13.595Z,19
2017-06-03T02:39:16.291Z,19.1
2017-06-03T02:40:18.926Z,19.1
2017-06-03T02:41:21.630Z,19.1
2017-06-03T02:42:24.315Z,19
2017-06-03T02:43:28.715Z,19
2017-06-03T02:44:31.356Z,19
2017-06-03T02:45:33.982Z,19
2017-06-03T02:46:37.325Z,18.9
2017-06-03T02:47:39.807Z,19
2017-06-03T02:48:42.292Z,18.9
2017-06-03T02:49:44.864Z,19.1
2017-06-03T02:50:47.324Z,19.2
2017-06-03T02:51:49.934Z,19.2
2017-06-03T02:52:52.386Z,19.2
2017-06-03T02:53:54.840Z,19.3
2017-06-03T02:54:57.433Z,19.4
2017-06-03T02:56:00.266Z,19.4
2017-06-03T02:57:02.743Z,19.4
2017-06-03T02:58:05.296Z,19.4
2017-06-03T02:59:07.828Z,19.5
2017-06-03T03:00:11.323Z,19.5
2017-06-03T03:01:14.403Z,19.4
2017-06-03T03:02:16.928Z,19.3
2017-06-03T03:03:19.518Z,19.1
2017-06-03T03:04:22.083Z,19.1
2017-06-03T03:05:24.652Z,19.2
2017-06-03T03:06:27.953Z,19.4
2017-06-03T03:07:30.472Z,19.4
2017-06-03T03:08:32.994Z,19.5
2017-06-03T03:09:35.436Z,19.5
2017-06-03T03:10:38.086Z,19.4
2017-06-03T03:11:41.125Z,19.2
2017-06-03T03:12:43.628Z,19.4
2017-06-03T03:13:46.101Z,19.3
2017-06-03T03:14:48.600Z,19.3
2017-06-03T03:15:51.096Z,19.2
2017-06-03T03:16:53.628Z,19.1
2017-06-03T03:17:56.103Z,19.1
2017-06-03T03:18:58.672Z,19.1
2017-06-03T03:20:01.206Z,19.3
2017-06-03T03:21:06.113Z,19.4
2017-06-03T03:22:08.637Z,19.3
2017-06-03T03:23:11.148Z,19.4
2017-06-03T03:24:13.664Z,19.5
2017-06-03T03:25:21.140Z,19.5
2017-06-03T03:26:23.657Z,19.5
2017-06-03T03:27:26.163Z,19.6
2017-06-03T03:28:28.651Z,19.6
2017-06-03T03:29:31.208Z,19.6
2017-06-03T03:30:33.705Z,19.6
2017-06-03T03:31:36.182Z,19.6
2017-06-03T03:32:39.002Z,19.7
2017-06-03T03:33:41.604Z,19.7
2017-06-03T03:34:44.129Z,19.7
2017-06-03T03:35:46.692Z,19.6
2017-06-03T03:36:49.216Z,19.6
2017-06-03T03:37:51.725Z,19.5
2017-06-03T03:38:54.266Z,19.5
2017-06-03T03:39:56.776Z,19.5
2017-06-03T03:40:59.281Z,19.5
2017-06-03T03:42:01.897Z,19.5
2017-06-03T03:43:04.735Z,19.6
2017-06-03T03:44:07.260Z,19.6
2017-06-03T03:45:09.765Z,19.5
2017-06-03T03:46:12.273Z,19.6
2017-06-03T03:47:14.805Z,19.7
2017-06-03T03:48:17.301Z,19.6
2017-06-03T03:49:19.850Z,19.6
2017-06-03T03:50:22.562Z,19.6
2017-06-03T03:51:25.126Z,19.5
2017-06-03T03:52:27.738Z,19.7
2017-06-03T03:53:30.426Z,19.4
2017-06-03T03:54:32.901Z,19.4
2017-06-03T03:55:35.475Z,19.5
2017-06-03T03:56:38.027Z,19.6
2017-06-03T03:57:40.536Z,19.7
2017-06-03T03:58:43.058Z,19.8
2017-06-03T03:59:45.520Z,19.8
2017-06-03T04:00:48.031Z,19.8
2017-06-03T04:01:50.556Z,19.4
2017-06-03T04:02:53.012Z,19.2
2017-06-03T04:03:55.503Z,19.3
2017-06-03T04:04:58.216Z,19.3
2017-06-03T04:06:00.654Z,19.5
2017-06-03T04:07:03.224Z,19.6
2017-06-03T04:08:05.731Z,19.6
2017-06-03T04:09:08.245Z,19.8
2017-06-03T04:10:10.727Z,19.7
2017-06-03T04:11:13.341Z,19.8
2017-06-03T04:12:15.927Z,19.8
2017-06-03T04:13:18.430Z,19.9
2017-06-03T04:14:24.485Z,19.9
2017-06-03T04:15:27.015Z,19.9
2017-06-03T04:16:29.713Z,19.9
2017-06-03T04:17:32.297Z,19.9
2017-06-03T04:18:34.785Z,19.9
2017-06-03T04:19:37.220Z,19.9
2017-06-03T04:20:39.708Z,19.8
2017-06-03T04:21:42.315Z,19.8
2017-06-03T04:22:44.811Z,19.9
2017-06-03T04:23:47.553Z,19.9
2017-06-03T04:24:50.026Z,19.9
2017-06-03T04:25:52.548Z,19.9
2017-06-03T04:26:55.013Z,19.9
2017-06-03T04:27:57.544Z,19.8
2017-06-03T04:29:00.036Z,19.8
2017-06-03T04:30:02.939Z,19.9
2017-06-03T04:31:07.410Z,19.9
2017-06-03T04:32:09.898Z,20
2017-06-03T04:33:12.393Z,19.8
2017-06-03T04:34:14.846Z,19.7
2017-06-03T04:35:17.374Z,19.9
2017-06-03T04:36:19.918Z,20
2017-06-03T04:37:22.449Z,20
2017-06-03T04:38:24.915Z,19.9
2017-06-03T04:39:27.393Z,19.8
2017-06-03T04:40:29.917Z,19.6
2017-06-03T04:41:32.857Z,19.7
2017-06-03T04:42:35.339Z,19.8
2017-06-03T04:43:37.815Z,19.7
2017-06-03T04:44:40.338Z,19.9
2017-06-03T04:45:42.858Z,19.9
2017-06-03T04:46:45.326Z,19.8
2017-06-03T04:47:47.788Z,19.9
2017-06-03T04:48:50.328Z,19.8
2017-06-03T04:49:52.794Z,19.9
2017-06-03T04:50:55.358Z,20
2017-06-03T04:51:57.875Z,20.1
2017-06-03T04:53:00.378Z,20.3
2017-06-03T04:54:02.913Z,20.3
2017-06-03T04:55:05.431Z,20.4
2017-06-03T04:56:07.917Z,20.2
2017-06-03T04:57:10.654Z,19.9
2017-06-03T04:58:13.226Z,19.8
2017-06-03T04:59:15.948Z,19.8
2017-06-03T05:00:18.782Z,19.8
2017-06-03T05:01:21.439Z,19.8
2017-06-03T05:02:24.149Z,19.9
2017-06-03T05:03:26.667Z,20.1
2017-06-03T05:04:29.181Z,20.1
2017-06-03T05:05:31.651Z,20.1
2017-06-03T05:06:34.124Z,20.1
2017-06-03T05:07:36.649Z,20.3
2017-06-03T05:08:39.176Z,20.5
2017-06-03T05:09:41.712Z,20.4
2017-06-03T05:10:44.190Z,20.5
2017-06-03T05:11:46.698Z,20.6
2017-06-03T05:12:49.199Z,20.7
2017-06-03T05:13:51.737Z,20.9
2017-06-03T05:14:54.220Z,21
2017-06-03T05:15:56.703Z,20.7
2017-06-03T05:16:59.608Z,20.6
2017-06-03T05:18:02.107Z,20.7
2017-06-03T05:19:06.192Z,20.8
2017-06-03T05:20:08.794Z,21.1
2017-06-03T05:21:11.533Z,21.1
2017-06-03T05:22:14.101Z,21.2
2017-06-03T05:23:17.680Z,21.5
2017-06-03T05:24:20.299Z,21.5
2017-06-03T05:25:22.803Z,21.5
2017-06-03T05:26:25.334Z,21.7
2017-06-03T05:27:27.837Z,22
2017-06-03T05:28:30.423Z,22.2
2017-06-03T05:29:32.956Z,22.1
2017-06-03T05:30:35.396Z,22
2017-06-03T05:31:37.935Z,22
2017-06-03T05:32:40.472Z,21.8
2017-06-03T05:33:43.006Z,21.3
2017-06-03T05:34:46.216Z,21
2017-06-03T05:35:48.796Z,20.7
2017-06-03T05:36:51.489Z,20.9
2017-06-03T05:37:54.414Z,21
2017-06-03T05:38:56.873Z,20.8
2017-06-03T05:39:59.405Z,20.8
2017-06-03T05:41:01.957Z,20.8
2017-06-03T05:42:04.452Z,21
2017-06-03T05:43:07.040Z,20.8
2017-06-03T05:44:09.803Z,21
2017-06-03T05:45:12.398Z,21.2
2017-06-03T05:46:14.899Z,21
2017-06-03T05:47:17.424Z,20.8
2017-06-03T05:48:19.980Z,20.9
2017-06-03T05:49:22.507Z,20.9
2017-06-03T05:50:25.081Z,20.7
2017-06-03T05:51:27.952Z,20.9
2017-06-03T05:52:30.596Z,20.6
2017-06-03T05:53:33.121Z,20.6
2017-06-03T05:54:35.663Z,20.6
2017-06-03T05:55:38.197Z,20.9
2017-06-03T05:56:40.911Z,21
2017-06-03T05:57:43.466Z,21.1
2017-06-03T05:58:45.985Z,21.2
2017-06-03T05:59:48.498Z,21.3
2017-06-03T06:00:50.977Z,21.1
2017-06-03T06:01:53.530Z,21.1
2017-06-03T06:02:55.995Z,21.2
2017-06-03T06:03:58.492Z,21.5
2017-06-03T06:05:00.958Z,21.8
2017-06-03T06:06:05.808Z,22
2017-06-03T06:07:08.322Z,22
2017-06-03T06:08:11.235Z,21.8
2017-06-03T06:09:14.320Z,21.9
2017-06-03T06:10:17.043Z,21.7
2017-06-03T06:11:19.627Z,21.8
2017-06-03T06:12:22.290Z,21.9
2017-06-03T06:13:24.824Z,21.7
2017-06-03T06:14:27.501Z,21.8
2017-06-03T06:15:31.279Z,22
2017-06-03T06:16:33.811Z,22.2
2017-06-03T06:17:36.325Z,22.3
2017-06-03T06:18:38.800Z,22.2
2017-06-03T06:19:41.521Z,21.8
2017-06-03T06:20:43.964Z,21.4
2017-06-03T06:21:46.554Z,21.3
2017-06-03T06:22:49.258Z,21.4
2017-06-03T06:23:51.849Z,21.2
2017-06-03T06:24:54.386Z,21.4
2017-06-03T06:25:56.807Z,21.4
2017-06-03T06:26:59.451Z,21.3
2017-06-03T06:28:01.995Z,21.3
2017-06-03T06:29:04.585Z,21.8
2017-06-03T06:30:10.221Z,22
2017-06-03T06:31:12.859Z,22.1
2017-06-03T06:32:15.392Z,22
2017-06-03T06:33:17.911Z,22.1
2017-06-03T06:34:20.443Z,22.5
2017-06-03T06:35:22.943Z,23.3
2017-06-03T06:36:25.538Z,23.5
2017-06-03T06:37:28.092Z,23.3
2017-06-03T06:38:30.673Z,23.4
2017-06-03T06:39:33.284Z,23.9
2017-06-03T06:40:36.504Z,24.9
2017-06-03T06:41:39.074Z,25.2
2017-06-03T06:42:41.652Z,24.8
2017-06-03T06:43:44.784Z,25.2
2017-06-03T06:44:47.303Z,25.3
2017-06-03T06:45:49.783Z,24.2
2017-06-03T06:46:52.243Z,24
2017-06-03T06:47:54.749Z,24.7
2017-06-03T06:48:57.243Z,25.2
2017-06-03T06:49:59.810Z,24.7
2017-06-03T06:51:02.360Z,24.6
2017-06-03T06:52:06.179Z,24.5
2017-06-03T06:53:08.802Z,24.7
2017-06-03T06:54:11.395Z,24.7
2017-06-03T06:55:13.991Z,24.9
2017-06-03T06:56:16.573Z,24.9
2017-06-03T06:57:19.481Z,25.1
2017-06-03T06:58:22.563Z,25.5
2017-06-03T06:59:25.173Z,25.6
2017-06-03T07:00:27.796Z,25.6
2017-06-03T07:01:30.522Z,25.5
2017-06-03T07:02:37.351Z,25.7
2017-06-03T07:03:39.964Z,25.2
2017-06-03T07:04:43.158Z,24.8
2017-06-03T07:05:46.634Z,24.8
2017-06-03T07:06:49.175Z,24.8
2017-06-03T07:07:51.774Z,24.6
2017-06-03T07:08:54.293Z,24.5
2017-06-03T07:09:56.863Z,24.6
2017-06-03T07:10:59.387Z,24.4
2017-06-03T07:12:02.006Z,24.5
2017-06-03T07:13:05.515Z,25
2017-06-03T07:14:08.025Z,26.4
2017-06-03T07:15:11.576Z,28
2017-06-03T07:16:14.166Z,29.1
2017-06-03T07:17:17.831Z,29.5
2017-06-03T07:18:20.572Z,29.6
2017-06-03T07:19:23.148Z,30.2
2017-06-03T07:20:25.869Z,30.2
2017-06-03T07:21:28.464Z,30.1
2017-06-03T07:22:31.110Z,29.2
2017-06-03T07:23:33.760Z,28.9
2017-06-03T07:24:38.886Z,29.3
2017-06-03T07:25:41.489Z,29.9
2017-06-03T07:26:44.295Z,28.3
2017-06-03T07:27:47.495Z,30.3
2017-06-03T07:28:50.049Z,30.6
2017-06-03T07:29:52.558Z,31.2
2017-06-03T07:30:55.055Z,30.4
2017-06-03T07:31:57.622Z,29.9
2017-06-03T07:33:04.106Z,30
2017-06-03T07:34:07.948Z,29.7
2017-06-03T07:35:12.875Z,29.5
2017-06-03T07:36:19.784Z,28.9
2017-06-03T07:37:23.023Z,28.7
2017-06-03T07:38:25.692Z,28.8
2017-06-03T07:39:28.251Z,28.6
2017-06-03T07:40:31.096Z,28.7
2017-06-03T07:41:34.205Z,27.4
2017-06-03T07:42:38.594Z,27.4
2017-06-03T07:43:41.359Z,27.6
2017-06-03T07:44:44.095Z,27.3
2017-06-03T07:45:47.440Z,26.5
2017-06-03T07:46:50.949Z,27.6
2017-06-03T07:47:54.117Z,28
2017-06-03T07:48:56.670Z,28
2017-06-03T07:49:59.240Z,28.4
2017-06-03T07:51:01.823Z,28.7
2017-06-03T07:52:05.899Z,28.4
2017-06-03T07:53:08.492Z,27.9
2017-06-03T07:54:11.838Z,26.6
2017-06-03T07:55:14.488Z,27.6
2017-06-03T07:56:17.007Z,28.4
2017-06-03T07:57:19.548Z,29
2017-06-03T07:58:22.234Z,28.8
2017-06-03T07:59:25.656Z,28.9
2017-06-03T08:00:29.114Z,29.1
2017-06-03T08:01:32.591Z,29.4
2017-06-03T08:02:35.448Z,29.7
2017-06-03T08:03:38.794Z,28.8
2017-06-03T08:04:42.021Z,29.9
2017-06-03T08:05:45.026Z,30.8
2017-06-03T08:06:47.817Z,31.3
2017-06-03T08:07:50.434Z,31.2
2017-06-03T08:08:53.104Z,31.4
2017-06-03T08:09:55.974Z,31.2
2017-06-03T08:11:01.842Z,30.8
2017-06-03T08:12:07.015Z,31.5
2017-06-03T08:13:10.549Z,31.8
2017-06-03T08:14:19.147Z,31.9
2017-06-03T08:15:23.007Z,32.3
2017-06-03T08:16:25.631Z,32.4
2017-06-03T08:17:30.102Z,32
2017-06-03T08:18:32.751Z,32.3
2017-06-03T08:19:35.443Z,32.2
2017-06-03T08:20:39.287Z,31.5
2017-06-03T08:21:42.325Z,31
2017-06-03T08:22:45.342Z,30.6
2017-06-03T08:23:47.908Z,30.2
2017-06-03T08:24:50.448Z,30.5
2017-06-03T08:25:54.886Z,30.5
2017-06-03T08:26:57.963Z,30.2
2017-06-03T08:28:00.881Z,29.9
2017-06-03T08:29:05.096Z,30.5
2017-06-03T08:31:18.643Z,30.9
2017-06-03T08:32:21.433Z,30.9
2017-06-03T08:33:24.784Z,31.9
2017-06-03T08:34:28.249Z,32.6
2017-06-03T08:35:32.696Z,33
2017-06-03T08:36:37.628Z,32.4
2017-06-03T08:37:42.022Z,32.1
2017-06-03T08:38:45.714Z,31.5
2017-06-03T08:39:49.363Z,31.2
2017-06-03T08:40:52.649Z,31.5
2017-06-03T08:41:55.482Z,30.8
2017-06-03T08:42:58.110Z,32
2017-06-03T08:44:00.830Z,33
2017-06-03T08:46:17.568Z,34
2017-06-03T08:47:20.934Z,34.1
2017-06-03T08:48:23.705Z,34.2
2017-06-03T08:49:26.370Z,33.9
2017-06-03T08:50:30.342Z,34.1
2017-06-03T08:51:33.809Z,34.8
2017-06-03T08:52:37.072Z,34.6
2017-06-03T08:53:39.811Z,35
2017-06-03T08:54:42.474Z,34.7
2017-06-03T08:55:47.734Z,34.8
2017-06-03T08:56:51.539Z,34.7
2017-06-03T08:57:54.693Z,34.3
2017-06-03T08:58:57.854Z,34.6
2017-06-03T09:00:00.476Z,35.2
2017-06-03T09:01:09.508Z,35.2
2017-06-03T09:02:12.249Z,35.4
2017-06-03T09:03:15.572Z,34
2017-06-03T09:04:20.566Z,32.9
2017-06-03T09:05:26.816Z,33.4
2017-06-03T09:06:35.136Z,33.8
2017-06-03T09:07:37.901Z,32.7
2017-06-03T09:08:40.758Z,34.2
2017-06-03T09:09:43.451Z,33.7
2017-06-03T09:10:46.040Z,34.3
2017-06-03T09:11:49.179Z,33.7
2017-06-03T09:12:51.846Z,34.6
2017-06-03T09:13:55.650Z,35.2
2017-06-03T09:14:58.255Z,35.8
2017-06-03T09:16:01.573Z,36.4
2017-06-03T09:18:14.798Z,33.8
2017-06-03T09:19:18.129Z,33.7
2017-06-03T09:20:22.329Z,34.1
2017-06-03T09:21:31.467Z,34.5
2017-06-03T09:22:36.497Z,33.7
2017-06-03T09:23:40.976Z,32.2
2017-06-03T09:24:45.174Z,33.4
2017-06-03T09:25:50.839Z,34
2017-06-03T09:27:00.333Z,34.3
2017-06-03T09:28:04.663Z,33.7
2017-06-03T09:29:12.729Z,34
2017-06-03T09:30:20.383Z,34.1
2017-06-03T09:31:23.889Z,34
2017-06-03T09:32:30.408Z,33.9
2017-06-03T09:33:34.032Z,34.6
2017-06-03T09:34:36.665Z,35
2017-06-03T09:35:39.355Z,35.5
2017-06-03T09:36:44.169Z,34.8
2017-06-03T09:37:46.806Z,35
2017-06-03T09:38:49.519Z,36
2017-06-03T09:39:52.330Z,35.3
2017-06-03T09:40:56.729Z,35.7
2017-06-03T09:42:00.225Z,35.7
2017-06-03T09:43:02.973Z,34
2017-06-03T09:44:07.671Z,33.6
2017-06-03T09:45:15.241Z,33.4
2017-06-03T09:46:19.383Z,33.2
2017-06-03T09:47:23.414Z,33
2017-06-03T09:48:26.562Z,32.8
2017-06-03T09:49:30.761Z,32.5
2017-06-03T09:50:34.894Z,32
2017-06-03T09:51:40.038Z,32.1
2017-06-03T09:52:45.427Z,31.8
2017-06-03T09:53:48.966Z,31.4
2017-06-03T09:54:52.395Z,30.6
2017-06-03T09:55:55.956Z,30.6
2017-06-03T09:56:58.619Z,30.6
2017-06-03T09:58:01.322Z,30.7
2017-06-03T09:59:08.253Z,30.5
2017-06-03T10:01:29.820Z,30.1
2017-06-03T10:02:32.623Z,30
2017-06-03T10:03:36.975Z,30.3
2017-06-03T10:04:43.650Z,29.6
2017-06-03T10:05:48.511Z,29.2
2017-06-03T10:08:08.998Z,29.4
2017-06-03T10:09:13.669Z,29.7
2017-06-03T10:10:17.105Z,30.6
2017-06-03T10:11:21.734Z,31.1
2017-06-03T10:12:28.144Z,30.6
2017-06-03T10:13:31.236Z,30.9
2017-06-03T10:14:35.640Z,30.6
2017-06-03T10:15:44.471Z,30.5
2017-06-03T10:16:49.435Z,30.4
2017-06-03T10:19:02.588Z,30
2017-06-03T10:20:20.131Z,30.1
2017-06-03T10:21:25.337Z,29.4
2017-06-03T10:22:28.853Z,29.6
2017-06-03T10:23:34.226Z,30.3
2017-06-03T10:24:44.105Z,30.5
2017-06-03T10:25:48.641Z,30.6
2017-06-03T10:26:52.980Z,30.3
2017-06-03T10:28:02.240Z,30.9
2017-06-03T10:29:17.134Z,30.8
2017-06-03T10:30:22.615Z,30.9
2017-06-03T10:31:29.344Z,29.7
2017-06-03T10:32:33.565Z,29.9
2017-06-03T10:33:39.685Z,29.9
2017-06-03T10:34:45.361Z,30
2017-06-03T10:35:52.443Z,29.4
2017-06-03T10:36:55.401Z,29.2
2017-06-03T10:38:00.318Z,28.9
2017-06-03T10:39:04.494Z,28.7
2017-06-03T10:40:18.280Z,28.5
2017-06-03T10:41:34.191Z,28.3
2017-06-03T10:42:42.575Z,28
2017-06-03T10:43:47.143Z,27.9
2017-06-03T10:44:50.623Z,27.7
2017-06-03T10:45:56.170Z,27.6
2017-06-03T10:47:05.563Z,27.4
2017-06-03T10:48:09.527Z,27.5
2017-06-03T10:49:12.534Z,27.5
2017-06-03T10:50:20.510Z,27.1
2017-06-03T10:51:26.198Z,26.8
2017-06-03T10:52:30.967Z,24.9
2017-06-03T10:53:33.821Z,23.5
2017-06-03T10:54:36.655Z,22
2017-06-03T10:55:40.150Z,21.2
2017-06-03T10:56:46.507Z,20.2
2017-06-03T10:57:50.379Z,19.4
2017-06-03T10:58:54.030Z,18.7
2017-06-03T10:59:56.968Z,18.6
2017-06-03T11:01:08.765Z,18.5
2017-06-03T11:02:12.501Z,19.1
2017-06-03T11:03:19.140Z,19.1
2017-06-03T11:05:34.785Z,19.5
2017-06-03T11:06:42.936Z,19.6
2017-06-03T11:07:48.663Z,19.4
2017-06-03T11:08:54.100Z,19.1
2017-06-03T11:09:57.007Z,19.7
2017-06-03T11:11:00.994Z,20.1
2017-06-03T11:12:11.012Z,20
2017-06-03T11:13:13.732Z,20
2017-06-03T11:14:20.266Z,19.7
2017-06-03T11:15:24.446Z,19.7
2017-06-03T11:16:36.462Z,20
2017-06-03T11:17:41.669Z,20.2
2017-06-03T11:18:45.169Z,20.3
2017-06-03T11:19:48.125Z,20.4
2017-06-03T11:20:53.363Z,20.6
2017-06-03T11:21:58.542Z,20.4
2017-06-03T11:23:01.736Z,20.3
2017-06-03T11:24:11.060Z,20.4
2017-06-03T11:25:15.110Z,20.5
2017-06-03T11:26:21.503Z,20.4
2017-06-03T11:27:26.143Z,20.2
2017-06-03T11:28:31.503Z,20.1
2017-06-03T11:29:35.904Z,20.2
2017-06-03T11:30:42.271Z,20.3
2017-06-03T11:31:48.499Z,20.1
2017-06-03T11:32:51.361Z,19.9
2017-06-03T11:35:11.137Z,20.1
2017-06-03T11:36:17.505Z,20
2017-06-03T11:37:22.275Z,20.3
2017-06-03T11:38:25.925Z,20.5
2017-06-03T11:39:28.812Z,20.8
2017-06-03T11:40:32.861Z,20.8
2017-06-03T11:41:36.300Z,20.8
2017-06-03T11:42:39.146Z,21.1
2017-06-03T11:43:41.977Z,21.6
2017-06-03T11:44:44.638Z,21.2
2017-06-03T11:45:48.197Z,21.3
2017-06-03T11:46:52.067Z,21.4
2017-06-03T11:47:55.293Z,22.1
2017-06-03T11:48:57.937Z,22.4
2017-06-03T11:50:00.675Z,22.9
2017-06-03T11:51:11.545Z,23.2
2017-06-03T11:52:15.824Z,23.4
2017-06-03T11:53:20.173Z,23.8
2017-06-03T11:54:24.901Z,23.9
2017-06-03T11:55:34.924Z,23.6
2017-06-03T11:56:41.721Z,23.7
2017-06-03T11:57:46.334Z,24
2017-06-03T11:58:58.364Z,24.1
2017-06-03T12:01:16.981Z,24.1
2017-06-03T12:02:21.655Z,24.1
2017-06-03T12:03:25.894Z,24
2017-06-03T12:04:30.666Z,23.6
2017-06-03T12:05:35.585Z,23.6
2017-06-03T12:06:39.288Z,24
2017-06-03T12:07:45.322Z,23.6
2017-06-03T12:08:48.080Z,23.9
2017-06-03T12:09:51.688Z,24.1
2017-06-03T12:10:57.990Z,24.6
2017-06-03T12:12:09.756Z,24.6
2017-06-03T12:13:12.602Z,24.6
2017-06-03T12:14:16.179Z,25
2017-06-03T12:15:20.500Z,25.5
2017-06-03T12:16:24.809Z,25.3
2017-06-03T12:17:29.695Z,25.3
2017-06-03T12:18:35.640Z,25.2
2017-06-03T12:19:41.544Z,25.4
2017-06-03T12:21:56.611Z,25.3
2017-06-03T12:23:02.070Z,25.6
2017-06-03T12:24:10.953Z,25.9
2017-06-03T12:25:17.807Z,26.3
2017-06-03T12:26:23.135Z,26.3
2017-06-03T12:27:31.911Z,26
2017-06-03T12:28:36.483Z,26.3
2017-06-03T12:29:41.309Z,26.6
2017-06-03T12:30:45.724Z,26.2
2017-06-03T12:31:50.396Z,26.1
2017-06-03T12:32:54.203Z,26.8
2017-06-03T12:33:57.060Z,26.5
2017-06-03T12:34:59.983Z,26.4
2017-06-03T12:36:11.036Z,26.1
2017-06-03T12:37:15.976Z,25.9
2017-06-03T12:38:22.741Z,26.1
2017-06-03T12:39:27.763Z,26.3
2017-06-03T12:40:32.642Z,26.1
2017-06-03T12:41:45.680Z,26
2017-06-03T12:42:56.380Z,26.3
2017-06-03T12:43:59.314Z,26.5
2017-06-03T12:46:23.319Z,27
2017-06-03T12:48:48.467Z,26
2017-06-03T12:49:53.554Z,26.5
2017-06-03T12:50:56.987Z,26.8
2017-06-03T12:52:00.970Z,26.4
2017-06-03T12:53:08.176Z,26.9
2017-06-03T12:54:11.027Z,27.3
2017-06-03T12:55:14.194Z,27.2
2017-06-03T12:56:19.910Z,27.1
2017-06-03T12:57:24.458Z,26.6
2017-06-03T12:58:31.915Z,27
2017-06-03T12:59:35.648Z,26.9
2017-06-03T13:00:38.576Z,26.9
2017-06-03T13:01:44.567Z,27.1
2017-06-03T13:02:49.586Z,27.6
2017-06-03T13:03:52.465Z,27.6
2017-06-03T13:04:55.138Z,27.9
2017-06-03T13:05:58.599Z,28
2017-06-03T13:07:01.450Z,28
2017-06-03T13:08:05.693Z,27.4
2017-06-03T13:09:10.924Z,27.7
2017-06-03T13:10:14.709Z,27.6
2017-06-03T13:11:17.604Z,27.5
2017-06-03T13:12:20.440Z,27.3
2017-06-03T13:13:24.594Z,27.4
2017-06-03T13:14:28.716Z,27
2017-06-03T13:15:35.343Z,27.2
2017-06-03T13:16:42.068Z,26.9
2017-06-03T13:17:45.762Z,27.2
2017-06-03T13:18:48.340Z,27.5
2017-06-03T13:19:50.968Z,27.1
2017-06-03T13:20:55.090Z,27.2
2017-06-03T13:21:59.265Z,27.7
2017-06-03T13:23:04.187Z,27.2
2017-06-03T13:24:09.564Z,27
2017-06-03T13:25:17.570Z,27.7
2017-06-03T13:26:24.503Z,27.5
2017-06-03T13:27:28.275Z,27.8
2017-06-03T13:28:33.398Z,27.3
2017-06-03T13:29:38.271Z,27
2017-06-03T13:30:46.564Z,27
2017-06-03T13:31:51.298Z,27.4
2017-06-03T13:32:56.998Z,26.8
2017-06-03T13:34:00.527Z,26.7
2017-06-03T13:36:15.893Z,27.1
2017-06-03T13:37:20.983Z,27.8
2017-06-03T13:38:27.597Z,28
2017-06-03T13:39:32.320Z,28.3
2017-06-03T13:40:37.804Z,28.6
2017-06-03T13:41:41.660Z,28.3
2017-06-03T13:42:44.739Z,28.1
2017-06-03T13:43:48.587Z,27.6
2017-06-03T13:44:51.467Z,27.9
2017-06-03T13:45:56.077Z,28.4
2017-06-03T13:46:59.866Z,28.7
2017-06-03T13:48:04.151Z,28.7
2017-06-03T13:49:11.003Z,27.4
2017-06-03T13:50:16.060Z,27
2017-06-03T13:51:23.234Z,27.5
2017-06-03T13:52:29.083Z,27.9
2017-06-03T13:53:32.299Z,28.2
2017-06-03T13:54:40.407Z,27.9
2017-06-03T13:55:55.964Z,28.3
2017-06-03T13:57:00.763Z,27.9
2017-06-03T13:59:16.157Z,27.5
2017-06-03T14:00:25.362Z,27.7
2017-06-03T14:01:31.105Z,26.7
2017-06-03T14:02:35.357Z,26.4
2017-06-03T14:03:39.141Z,26.5
2017-06-03T14:04:42.736Z,25.9
2017-06-03T14:05:46.199Z,26.1
2017-06-03T14:06:50.827Z,26.3
2017-06-03T14:07:54.316Z,26.1
2017-06-03T14:08:57.107Z,25.8
2017-06-03T14:09:59.823Z,26.2
2017-06-03T14:11:07.732Z,26.1
2017-06-03T14:12:12.376Z,25.6
2017-06-03T14:13:15.148Z,25.5
2017-06-03T14:14:18.228Z,25.6
2017-06-03T14:15:21.530Z,25.1
2017-06-03T14:16:24.465Z,25
2017-06-03T14:17:28.013Z,24.4
2017-06-03T14:18:32.708Z,24.4
2017-06-03T14:19:39.455Z,24.4
2017-06-03T14:20:44.536Z,24.8
2017-06-03T14:21:48.282Z,25
2017-06-03T14:22:53.536Z,25.1
2017-06-03T14:23:56.930Z,25.1
2017-06-03T14:25:00.958Z,25.1
2017-06-03T14:26:13.049Z,25
2017-06-03T14:27:17.636Z,24.8
2017-06-03T14:28:24.165Z,24.5
2017-06-03T14:29:29.974Z,24.5
2017-06-03T14:30:44.254Z,24.7
2017-06-03T14:32:00.042Z,24.6
2017-06-03T14:33:15.701Z,24.4